sensor_id;sensor_type;location;lat;lon;timestamp;P1;durP1;ratioP1;P2;durP2;ratioP2
78891;SDS011;68368;51.728;5.248;2023-05-07T00:00:35;9.10;;;7.00;;
78891;SDS011;68368;51.728;5.248;2023-05-07T00:02:39;8.00;;;6.60;;
78891;SDS011;68368;51.728;5.248;2023-05-07T00:04:43;9.20;;;6.60;;
78891;SDS011;68368;51.728;5.248;2023-05-07T00:06:46;7.00;;;6.10;;
78891;SDS011;68368;51.728;5.248;2023-05-07T00:08:50;8.00;;;6.70;;
78891;SDS011;68368;51.728;5.248;2023-05-07T00:10:53;8.30;;;6.50;;
78891;SDS011;68368;51.728;5.248;2023-05-07T00:12:56;11.40;;;7.10;;
78891;SDS011;68368;51.728;5.248;2023-05-07T00:15:00;7.20;;;6.30;;
78891;SDS011;68368;51.728;5.248;2023-05-07T00:17:05;8.70;;;6.30;;
78891;SDS011;68368;51.728;5.248;2023-05-07T00:19:08;7.00;;;5.90;;
78891;SDS011;68368;51.728;5.248;2023-05-07T00:21:12;7.80;;;6.10;;
78891;SDS011;68368;51.728;5.248;2023-05-07T00:23:15;6.50;;;5.20;;
78891;SDS011;68368;51.728;5.248;2023-05-07T00:25:19;7.40;;;5.80;;
78891;SDS011;68368;51.728;5.248;2023-05-07T00:27:25;7.50;;;5.90;;
78891;SDS011;68368;51.728;5.248;2023-05-07T00:29:29;7.00;;;6.00;;
78891;SDS011;68368;51.728;5.248;2023-05-07T00:31:32;8.90;;;5.80;;
78891;SDS011;68368;51.728;5.248;2023-05-07T00:33:35;7.70;;;5.80;;
78891;SDS011;68368;51.728;5.248;2023-05-07T00:35:41;8.70;;;5.50;;
78891;SDS011;68368;51.728;5.248;2023-05-07T00:37:46;8.00;;;5.20;;
78891;SDS011;68368;51.728;5.248;2023-05-07T00:39:49;6.30;;;5.00;;
78891;SDS011;68368;51.728;5.248;2023-05-07T00:41:52;6.00;;;4.90;;
78891;SDS011;68368;51.728;5.248;2023-05-07T00:43:56;7.20;;;5.30;;
78891;SDS011;68368;51.728;5.248;2023-05-07T00:46:00;5.40;;;4.80;;
78891;SDS011;68368;51.728;5.248;2023-05-07T00:48:07;7.20;;;4.80;;
78891;SDS011;68368;51.728;5.248;2023-05-07T00:50:10;5.00;;;4.20;;
78891;SDS011;68368;51.728;5.248;2023-05-07T00:52:14;7.70;;;4.30;;
78891;SDS011;68368;51.728;5.248;2023-05-07T00:54:20;5.90;;;4.50;;
78891;SDS011;68368;51.728;5.248;2023-05-07T00:56:23;7.30;;;5.20;;
78891;SDS011;68368;51.728;5.248;2023-05-07T00:58:27;8.50;;;5.70;;
78891;SDS011;68368;51.728;5.248;2023-05-07T01:00:36;6.90;;;5.40;;
78891;SDS011;68368;51.728;5.248;2023-05-07T01:02:39;8.80;;;5.40;;
78891;SDS011;68368;51.728;5.248;2023-05-07T01:04:43;7.40;;;5.20;;
78891;SDS011;68368;51.728;5.248;2023-05-07T01:06:46;8.60;;;5.50;;
78891;SDS011;68368;51.728;5.248;2023-05-07T01:08:53;7.30;;;5.40;;
78891;SDS011;68368;51.728;5.248;2023-05-07T01:10:58;7.70;;;5.30;;
78891;SDS011;68368;51.728;5.248;2023-05-07T01:13:04;9.10;;;5.50;;
78891;SDS011;68368;51.728;5.248;2023-05-07T01:15:11;8.80;;;5.60;;
78891;SDS011;68368;51.728;5.248;2023-05-07T01:17:15;7.30;;;5.90;;
78891;SDS011;68368;51.728;5.248;2023-05-07T01:19:19;7.50;;;6.10;;
78891;SDS011;68368;51.728;5.248;2023-05-07T01:21:24;10.10;;;5.70;;
78891;SDS011;68368;51.728;5.248;2023-05-07T01:23:29;7.40;;;5.40;;
78891;SDS011;68368;51.728;5.248;2023-05-07T01:25:35;8.80;;;5.30;;
78891;SDS011;68368;51.728;5.248;2023-05-07T01:27:41;8.00;;;5.90;;
78891;SDS011;68368;51.728;5.248;2023-05-07T01:29:44;6.90;;;5.90;;
78891;SDS011;68368;51.728;5.248;2023-05-07T01:31:48;10.10;;;6.80;;
78891;SDS011;68368;51.728;5.248;2023-05-07T01:33:54;8.00;;;6.00;;
78891;SDS011;68368;51.728;5.248;2023-05-07T01:36:01;8.20;;;6.10;;
78891;SDS011;68368;51.728;5.248;2023-05-07T01:38:06;7.90;;;6.00;;
78891;SDS011;68368;51.728;5.248;2023-05-07T01:40:14;8.60;;;6.30;;
78891;SDS011;68368;51.728;5.248;2023-05-07T01:42:19;8.60;;;6.20;;
78891;SDS011;68368;51.728;5.248;2023-05-07T01:44:25;7.80;;;5.70;;
78891;SDS011;68368;51.728;5.248;2023-05-07T01:46:29;9.30;;;6.20;;
78891;SDS011;68368;51.728;5.248;2023-05-07T01:48:34;9.80;;;6.70;;
78891;SDS011;68368;51.728;5.248;2023-05-07T01:50:39;9.40;;;6.70;;
78891;SDS011;68368;51.728;5.248;2023-05-07T01:52:50;9.50;;;6.80;;
78891;SDS011;68368;51.728;5.248;2023-05-07T01:54:54;7.80;;;7.00;;
78891;SDS011;68368;51.728;5.248;2023-05-07T01:56:59;7.80;;;6.10;;
78891;SDS011;68368;51.728;5.248;2023-05-07T01:59:02;9.50;;;6.70;;
78891;SDS011;68368;51.728;5.248;2023-05-07T02:01:12;8.40;;;6.70;;
78891;SDS011;68368;51.728;5.248;2023-05-07T02:03:16;8.70;;;7.20;;
78891;SDS011;68368;51.728;5.248;2023-05-07T02:05:22;9.80;;;7.30;;
78891;SDS011;68368;51.728;5.248;2023-05-07T02:07:25;9.00;;;7.00;;
78891;SDS011;68368;51.728;5.248;2023-05-07T02:09:29;8.40;;;6.80;;
78891;SDS011;68368;51.728;5.248;2023-05-07T02:11:34;10.10;;;6.70;;
78891;SDS011;68368;51.728;5.248;2023-05-07T02:13:37;9.80;;;7.10;;
78891;SDS011;68368;51.728;5.248;2023-05-07T02:15:40;10.30;;;8.00;;
78891;SDS011;68368;51.728;5.248;2023-05-07T02:20:22;11.50;;;8.20;;
78891;SDS011;68368;51.728;5.248;2023-05-07T02:22:25;12.00;;;8.30;;
78891;SDS011;68368;51.728;5.248;2023-05-07T02:24:28;10.50;;;7.60;;
78891;SDS011;68368;51.728;5.248;2023-05-07T02:26:31;10.50;;;8.00;;
78891;SDS011;68368;51.728;5.248;2023-05-07T02:28:34;9.20;;;7.70;;
78891;SDS011;68368;51.728;5.248;2023-05-07T02:30:38;10.60;;;8.50;;
78891;SDS011;68368;51.728;5.248;2023-05-07T02:32:42;9.90;;;8.90;;
78891;SDS011;68368;51.728;5.248;2023-05-07T02:34:46;11.20;;;8.80;;
78891;SDS011;68368;51.728;5.248;2023-05-07T02:36:53;10.80;;;8.80;;
78891;SDS011;68368;51.728;5.248;2023-05-07T02:38:57;12.30;;;8.90;;
78891;SDS011;68368;51.728;5.248;2023-05-07T02:41:00;12.20;;;8.70;;
78891;SDS011;68368;51.728;5.248;2023-05-07T02:43:03;10.60;;;9.00;;
78891;SDS011;68368;51.728;5.248;2023-05-07T02:45:09;12.00;;;8.40;;
78891;SDS011;68368;51.728;5.248;2023-05-07T02:47:15;12.20;;;9.10;;
78891;SDS011;68368;51.728;5.248;2023-05-07T02:49:18;12.60;;;9.50;;
78891;SDS011;68368;51.728;5.248;2023-05-07T02:51:31;14.80;;;9.50;;
78891;SDS011;68368;51.728;5.248;2023-05-07T02:53:35;11.60;;;9.30;;
78891;SDS011;68368;51.728;5.248;2023-05-07T02:55:40;13.40;;;9.00;;
78891;SDS011;68368;51.728;5.248;2023-05-07T02:57:43;12.70;;;10.00;;
78891;SDS011;68368;51.728;5.248;2023-05-07T02:59:47;12.00;;;9.80;;
78891;SDS011;68368;51.728;5.248;2023-05-07T03:01:56;12.60;;;10.00;;
78891;SDS011;68368;51.728;5.248;2023-05-07T03:03:59;12.00;;;9.50;;
78891;SDS011;68368;51.728;5.248;2023-05-07T03:06:03;12.80;;;9.70;;
78891;SDS011;68368;51.728;5.248;2023-05-07T03:08:07;10.90;;;9.80;;
78891;SDS011;68368;51.728;5.248;2023-05-07T03:10:12;12.80;;;9.90;;
78891;SDS011;68368;51.728;5.248;2023-05-07T03:12:16;11.60;;;10.10;;
78891;SDS011;68368;51.728;5.248;2023-05-07T03:14:19;14.00;;;10.80;;
78891;SDS011;68368;51.728;5.248;2023-05-07T03:16:22;15.10;;;11.20;;
78891;SDS011;68368;51.728;5.248;2023-05-07T03:18:25;16.40;;;11.70;;
78891;SDS011;68368;51.728;5.248;2023-05-07T03:20:29;14.60;;;11.10;;
78891;SDS011;68368;51.728;5.248;2023-05-07T03:22:33;14.10;;;10.60;;
78891;SDS011;68368;51.728;5.248;2023-05-07T03:24:37;14.40;;;11.00;;
78891;SDS011;68368;51.728;5.248;2023-05-07T03:26:42;15.40;;;11.10;;
78891;SDS011;68368;51.728;5.248;2023-05-07T03:28:45;16.70;;;12.00;;
78891;SDS011;68368;51.728;5.248;2023-05-07T03:30:49;16.20;;;11.60;;
78891;SDS011;68368;51.728;5.248;2023-05-07T03:32:52;14.70;;;12.10;;
78891;SDS011;68368;51.728;5.248;2023-05-07T03:34:56;15.60;;;11.40;;
78891;SDS011;68368;51.728;5.248;2023-05-07T03:37:00;15.10;;;11.30;;
78891;SDS011;68368;51.728;5.248;2023-05-07T03:39:03;14.90;;;10.20;;
78891;SDS011;68368;51.728;5.248;2023-05-07T03:41:06;12.80;;;11.40;;
78891;SDS011;68368;51.728;5.248;2023-05-07T03:43:10;14.70;;;12.40;;
78891;SDS011;68368;51.728;5.248;2023-05-07T03:45:14;14.10;;;12.00;;
78891;SDS011;68368;51.728;5.248;2023-05-07T03:47:17;14.90;;;11.40;;
78891;SDS011;68368;51.728;5.248;2023-05-07T03:49:21;15.10;;;12.10;;
78891;SDS011;68368;51.728;5.248;2023-05-07T03:51:24;14.00;;;11.90;;
78891;SDS011;68368;51.728;5.248;2023-05-07T03:53:28;15.00;;;11.10;;
78891;SDS011;68368;51.728;5.248;2023-05-07T03:55:33;12.00;;;10.70;;
78891;SDS011;68368;51.728;5.248;2023-05-07T03:57:36;14.20;;;11.20;;
78891;SDS011;68368;51.728;5.248;2023-05-07T03:59:40;15.40;;;12.00;;
78891;SDS011;68368;51.728;5.248;2023-05-07T04:01:45;15.70;;;12.00;;
78891;SDS011;68368;51.728;5.248;2023-05-07T04:03:48;13.70;;;12.10;;
78891;SDS011;68368;51.728;5.248;2023-05-07T04:05:51;15.00;;;11.90;;
78891;SDS011;68368;51.728;5.248;2023-05-07T04:07:57;14.10;;;12.50;;
78891;SDS011;68368;51.728;5.248;2023-05-07T04:10:02;14.90;;;11.50;;
78891;SDS011;68368;51.728;5.248;2023-05-07T04:12:06;13.50;;;11.20;;
78891;SDS011;68368;51.728;5.248;2023-05-07T04:14:10;13.40;;;11.90;;
78891;SDS011;68368;51.728;5.248;2023-05-07T04:16:14;14.70;;;12.50;;
78891;SDS011;68368;51.728;5.248;2023-05-07T04:18:18;17.10;;;12.40;;
78891;SDS011;68368;51.728;5.248;2023-05-07T04:20:22;16.10;;;12.30;;
78891;SDS011;68368;51.728;5.248;2023-05-07T04:22:26;16.50;;;13.10;;
78891;SDS011;68368;51.728;5.248;2023-05-07T04:24:34;16.00;;;12.20;;
78891;SDS011;68368;51.728;5.248;2023-05-07T04:26:37;16.00;;;12.30;;
78891;SDS011;68368;51.728;5.248;2023-05-07T04:28:41;15.60;;;12.20;;
78891;SDS011;68368;51.728;5.248;2023-05-07T04:30:45;17.70;;;13.70;;
78891;SDS011;68368;51.728;5.248;2023-05-07T04:32:48;17.00;;;13.80;;
78891;SDS011;68368;51.728;5.248;2023-05-07T04:34:51;15.90;;;13.00;;
78891;SDS011;68368;51.728;5.248;2023-05-07T04:36:57;16.00;;;13.00;;
78891;SDS011;68368;51.728;5.248;2023-05-07T04:39:01;16.70;;;12.80;;
78891;SDS011;68368;51.728;5.248;2023-05-07T04:41:06;15.70;;;13.20;;
78891;SDS011;68368;51.728;5.248;2023-05-07T04:43:11;16.50;;;13.50;;
78891;SDS011;68368;51.728;5.248;2023-05-07T04:45:14;16.90;;;13.80;;
78891;SDS011;68368;51.728;5.248;2023-05-07T04:47:18;16.20;;;14.30;;
78891;SDS011;68368;51.728;5.248;2023-05-07T04:49:22;17.20;;;14.20;;
78891;SDS011;68368;51.728;5.248;2023-05-07T04:51:25;18.30;;;14.10;;
78891;SDS011;68368;51.728;5.248;2023-05-07T04:53:28;15.00;;;12.70;;
78891;SDS011;68368;51.728;5.248;2023-05-07T04:55:32;16.20;;;13.90;;
78891;SDS011;68368;51.728;5.248;2023-05-07T04:57:36;17.70;;;14.20;;
78891;SDS011;68368;51.728;5.248;2023-05-07T04:59:40;19.60;;;15.30;;
78891;SDS011;68368;51.728;5.248;2023-05-07T05:01:46;17.60;;;15.30;;
78891;SDS011;68368;51.728;5.248;2023-05-07T05:03:49;16.70;;;14.50;;
78891;SDS011;68368;51.728;5.248;2023-05-07T05:05:52;18.20;;;14.90;;
78891;SDS011;68368;51.728;5.248;2023-05-07T05:07:59;19.90;;;15.20;;
78891;SDS011;68368;51.728;5.248;2023-05-07T05:10:04;17.60;;;14.60;;
78891;SDS011;68368;51.728;5.248;2023-05-07T05:12:08;17.10;;;14.20;;
78891;SDS011;68368;51.728;5.248;2023-05-07T05:14:14;18.90;;;15.40;;
78891;SDS011;68368;51.728;5.248;2023-05-07T05:16:18;20.20;;;16.70;;
78891;SDS011;68368;51.728;5.248;2023-05-07T05:18:21;20.50;;;16.40;;
78891;SDS011;68368;51.728;5.248;2023-05-07T05:20:25;19.30;;;15.70;;
78891;SDS011;68368;51.728;5.248;2023-05-07T05:22:28;21.30;;;15.40;;
78891;SDS011;68368;51.728;5.248;2023-05-07T05:24:32;17.30;;;14.20;;
78891;SDS011;68368;51.728;5.248;2023-05-07T05:26:38;18.50;;;15.60;;
78891;SDS011;68368;51.728;5.248;2023-05-07T05:28:42;20.50;;;15.80;;
78891;SDS011;68368;51.728;5.248;2023-05-07T05:30:46;20.50;;;17.20;;
78891;SDS011;68368;51.728;5.248;2023-05-07T05:32:49;20.90;;;15.70;;
78891;SDS011;68368;51.728;5.248;2023-05-07T05:34:52;22.90;;;15.40;;
78891;SDS011;68368;51.728;5.248;2023-05-07T05:36:55;18.40;;;14.90;;
78891;SDS011;68368;51.728;5.248;2023-05-07T05:39:00;18.70;;;15.20;;
78891;SDS011;68368;51.728;5.248;2023-05-07T05:41:07;19.80;;;15.80;;
78891;SDS011;68368;51.728;5.248;2023-05-07T05:43:11;19.00;;;16.80;;
78891;SDS011;68368;51.728;5.248;2023-05-07T05:45:14;19.70;;;16.40;;
78891;SDS011;68368;51.728;5.248;2023-05-07T05:47:19;21.90;;;16.90;;
78891;SDS011;68368;51.728;5.248;2023-05-07T05:49:23;21.30;;;17.30;;
78891;SDS011;68368;51.728;5.248;2023-05-07T05:51:26;24.20;;;17.20;;
78891;SDS011;68368;51.728;5.248;2023-05-07T05:53:29;20.60;;;17.00;;
78891;SDS011;68368;51.728;5.248;2023-05-07T05:55:36;21.40;;;16.80;;
78891;SDS011;68368;51.728;5.248;2023-05-07T05:57:40;19.60;;;15.90;;
78891;SDS011;68368;51.728;5.248;2023-05-07T05:59:45;19.10;;;16.30;;
78891;SDS011;68368;51.728;5.248;2023-05-07T06:01:49;23.60;;;18.40;;
78891;SDS011;68368;51.728;5.248;2023-05-07T06:03:53;21.80;;;18.60;;
78891;SDS011;68368;51.728;5.248;2023-05-07T06:05:56;21.60;;;17.60;;
78891;SDS011;68368;51.728;5.248;2023-05-07T06:07:59;20.30;;;17.30;;
78891;SDS011;68368;51.728;5.248;2023-05-07T06:10:03;21.40;;;17.80;;
78891;SDS011;68368;51.728;5.248;2023-05-07T06:12:11;20.40;;;16.80;;
78891;SDS011;68368;51.728;5.248;2023-05-07T06:14:14;20.90;;;17.60;;
78891;SDS011;68368;51.728;5.248;2023-05-07T06:16:18;22.10;;;17.50;;
78891;SDS011;68368;51.728;5.248;2023-05-07T06:18:22;22.70;;;19.30;;
78891;SDS011;68368;51.728;5.248;2023-05-07T06:20:26;23.10;;;19.60;;
78891;SDS011;68368;51.728;5.248;2023-05-07T06:22:32;24.40;;;19.60;;
78891;SDS011;68368;51.728;5.248;2023-05-07T06:24:37;21.40;;;17.40;;
78891;SDS011;68368;51.728;5.248;2023-05-07T06:26:41;24.40;;;17.70;;
78891;SDS011;68368;51.728;5.248;2023-05-07T06:28:44;21.30;;;17.20;;
78891;SDS011;68368;51.728;5.248;2023-05-07T06:30:47;19.90;;;17.20;;
78891;SDS011;68368;51.728;5.248;2023-05-07T06:32:51;21.50;;;17.40;;
78891;SDS011;68368;51.728;5.248;2023-05-07T06:34:54;21.10;;;18.20;;
78891;SDS011;68368;51.728;5.248;2023-05-07T06:36:58;21.20;;;18.10;;
78891;SDS011;68368;51.728;5.248;2023-05-07T06:39:02;20.80;;;16.90;;
78891;SDS011;68368;51.728;5.248;2023-05-07T06:41:06;22.00;;;16.60;;
78891;SDS011;68368;51.728;5.248;2023-05-07T06:43:10;18.50;;;16.00;;
78891;SDS011;68368;51.728;5.248;2023-05-07T06:45:14;17.30;;;15.30;;
78891;SDS011;68368;51.728;5.248;2023-05-07T06:47:17;17.60;;;15.70;;
78891;SDS011;68368;51.728;5.248;2023-05-07T06:49:22;18.80;;;16.00;;
78891;SDS011;68368;51.728;5.248;2023-05-07T06:51:25;19.10;;;17.00;;
78891;SDS011;68368;51.728;5.248;2023-05-07T06:53:31;18.80;;;16.60;;
78891;SDS011;68368;51.728;5.248;2023-05-07T06:55:34;17.20;;;15.00;;
78891;SDS011;68368;51.728;5.248;2023-05-07T06:57:39;16.80;;;15.00;;
78891;SDS011;68368;51.728;5.248;2023-05-07T06:59:43;19.10;;;15.40;;
78891;SDS011;68368;51.728;5.248;2023-05-07T07:01:46;19.30;;;16.50;;
78891;SDS011;68368;51.728;5.248;2023-05-07T07:03:50;19.40;;;16.20;;
78891;SDS011;68368;51.728;5.248;2023-05-07T07:05:53;22.10;;;17.30;;
78891;SDS011;68368;51.728;5.248;2023-05-07T07:07:59;17.60;;;14.70;;
78891;SDS011;68368;51.728;5.248;2023-05-07T07:10:03;18.50;;;15.40;;
78891;SDS011;68368;51.728;5.248;2023-05-07T07:12:08;16.30;;;14.20;;
78891;SDS011;68368;51.728;5.248;2023-05-07T07:14:12;17.90;;;14.90;;
78891;SDS011;68368;51.728;5.248;2023-05-07T07:16:16;17.20;;;15.10;;
78891;SDS011;68368;51.728;5.248;2023-05-07T07:18:27;16.90;;;15.00;;
78891;SDS011;68368;51.728;5.248;2023-05-07T07:20:31;18.70;;;16.10;;
78891;SDS011;68368;51.728;5.248;2023-05-07T07:22:35;17.50;;;14.60;;
78891;SDS011;68368;51.728;5.248;2023-05-07T07:24:38;16.70;;;14.70;;
78891;SDS011;68368;51.728;5.248;2023-05-07T07:26:43;16.60;;;14.70;;
78891;SDS011;68368;51.728;5.248;2023-05-07T07:28:46;19.20;;;15.60;;
78891;SDS011;68368;51.728;5.248;2023-05-07T07:30:51;16.80;;;14.40;;
78891;SDS011;68368;51.728;5.248;2023-05-07T07:32:55;18.90;;;15.00;;
78891;SDS011;68368;51.728;5.248;2023-05-07T07:35:02;17.30;;;15.30;;
78891;SDS011;68368;51.728;5.248;2023-05-07T07:37:07;17.80;;;15.00;;
78891;SDS011;68368;51.728;5.248;2023-05-07T07:39:15;17.40;;;14.80;;
78891;SDS011;68368;51.728;5.248;2023-05-07T07:43:20;18.60;;;14.20;;
78891;SDS011;68368;51.728;5.248;2023-05-07T07:45:23;19.00;;;14.60;;
78891;SDS011;68368;51.728;5.248;2023-05-07T07:47:27;17.60;;;15.20;;
78891;SDS011;68368;51.728;5.248;2023-05-07T07:49:30;18.30;;;16.00;;
78891;SDS011;68368;51.728;5.248;2023-05-07T07:51:33;18.90;;;16.30;;
78891;SDS011;68368;51.728;5.248;2023-05-07T07:53:39;17.60;;;14.80;;
78891;SDS011;68368;51.728;5.248;2023-05-07T07:55:42;16.70;;;14.00;;
78891;SDS011;68368;51.728;5.248;2023-05-07T07:57:47;14.60;;;13.10;;
78891;SDS011;68368;51.728;5.248;2023-05-07T07:59:50;16.20;;;14.60;;
78891;SDS011;68368;51.728;5.248;2023-05-07T08:01:57;16.50;;;14.60;;
78891;SDS011;68368;51.728;5.248;2023-05-07T08:04:01;17.50;;;15.30;;
78891;SDS011;68368;51.728;5.248;2023-05-07T08:06:07;19.20;;;15.40;;
78891;SDS011;68368;51.728;5.248;2023-05-07T08:08:10;16.70;;;14.90;;
78891;SDS011;68368;51.728;5.248;2023-05-07T08:10:13;16.80;;;13.20;;
78891;SDS011;68368;51.728;5.248;2023-05-07T08:12:17;15.30;;;13.40;;
78891;SDS011;68368;51.728;5.248;2023-05-07T08:14:23;18.30;;;14.30;;
78891;SDS011;68368;51.728;5.248;2023-05-07T08:16:27;17.10;;;14.40;;
78891;SDS011;68368;51.728;5.248;2023-05-07T08:18:30;15.60;;;14.00;;
78891;SDS011;68368;51.728;5.248;2023-05-07T08:20:35;17.40;;;14.80;;
78891;SDS011;68368;51.728;5.248;2023-05-07T08:22:39;17.90;;;14.30;;
78891;SDS011;68368;51.728;5.248;2023-05-07T08:24:42;17.80;;;14.10;;
78891;SDS011;68368;51.728;5.248;2023-05-07T08:26:46;15.20;;;13.00;;
78891;SDS011;68368;51.728;5.248;2023-05-07T08:28:50;16.20;;;13.50;;
78891;SDS011;68368;51.728;5.248;2023-05-07T08:30:53;16.40;;;14.60;;
78891;SDS011;68368;51.728;5.248;2023-05-07T08:32:59;16.80;;;13.90;;
78891;SDS011;68368;51.728;5.248;2023-05-07T08:35:03;15.70;;;13.70;;
78891;SDS011;68368;51.728;5.248;2023-05-07T08:37:09;16.40;;;14.00;;
78891;SDS011;68368;51.728;5.248;2023-05-07T08:39:13;15.50;;;13.70;;
78891;SDS011;68368;51.728;5.248;2023-05-07T08:41:16;17.40;;;14.70;;
78891;SDS011;68368;51.728;5.248;2023-05-07T08:43:23;16.50;;;14.50;;
78891;SDS011;68368;51.728;5.248;2023-05-07T08:45:28;14.90;;;13.20;;
78891;SDS011;68368;51.728;5.248;2023-05-07T08:47:38;14.30;;;12.80;;
78891;SDS011;68368;51.728;5.248;2023-05-07T08:49:50;15.40;;;13.80;;
78891;SDS011;68368;51.728;5.248;2023-05-07T08:51:55;15.70;;;13.90;;
78891;SDS011;68368;51.728;5.248;2023-05-07T08:53:59;16.10;;;13.70;;
78891;SDS011;68368;51.728;5.248;2023-05-07T08:56:05;14.80;;;13.10;;
78891;SDS011;68368;51.728;5.248;2023-05-07T08:58:09;13.50;;;12.10;;
78891;SDS011;68368;51.728;5.248;2023-05-07T09:00:14;13.90;;;12.20;;
78891;SDS011;68368;51.728;5.248;2023-05-07T09:02:20;12.90;;;11.50;;
78891;SDS011;68368;51.728;5.248;2023-05-07T09:04:25;13.20;;;11.70;;
78891;SDS011;68368;51.728;5.248;2023-05-07T09:06:29;13.40;;;11.90;;
78891;SDS011;68368;51.728;5.248;2023-05-07T09:08:33;15.90;;;12.80;;
78891;SDS011;68368;51.728;5.248;2023-05-07T09:10:37;13.00;;;11.60;;
78891;SDS011;68368;51.728;5.248;2023-05-07T09:12:41;13.10;;;11.10;;
78891;SDS011;68368;51.728;5.248;2023-05-07T09:14:47;12.80;;;11.00;;
78891;SDS011;68368;51.728;5.248;2023-05-07T09:16:51;12.10;;;10.90;;
78891;SDS011;68368;51.728;5.248;2023-05-07T09:18:57;12.40;;;10.90;;
78891;SDS011;68368;51.728;5.248;2023-05-07T09:21:02;12.00;;;10.40;;
78891;SDS011;68368;51.728;5.248;2023-05-07T09:23:05;12.60;;;11.00;;
78891;SDS011;68368;51.728;5.248;2023-05-07T09:25:12;11.00;;;9.80;;
78891;SDS011;68368;51.728;5.248;2023-05-07T09:27:17;11.50;;;10.20;;
78891;SDS011;68368;51.728;5.248;2023-05-07T09:29:22;13.20;;;10.80;;
78891;SDS011;68368;51.728;5.248;2023-05-07T09:31:26;12.40;;;10.30;;
78891;SDS011;68368;51.728;5.248;2023-05-07T09:33:30;13.70;;;12.40;;
78891;SDS011;68368;51.728;5.248;2023-05-07T09:35:34;12.80;;;11.40;;
78891;SDS011;68368;51.728;5.248;2023-05-07T09:37:39;13.10;;;11.70;;
78891;SDS011;68368;51.728;5.248;2023-05-07T09:39:44;12.80;;;11.30;;
78891;SDS011;68368;51.728;5.248;2023-05-07T09:41:48;13.90;;;12.50;;
78891;SDS011;68368;51.728;5.248;2023-05-07T09:43:54;12.70;;;11.40;;
78891;SDS011;68368;51.728;5.248;2023-05-07T09:45:57;13.20;;;11.80;;
78891;SDS011;68368;51.728;5.248;2023-05-07T09:48:02;14.20;;;12.70;;
78891;SDS011;68368;51.728;5.248;2023-05-07T09:50:08;12.80;;;11.40;;
78891;SDS011;68368;51.728;5.248;2023-05-07T09:52:13;13.60;;;12.20;;
78891;SDS011;68368;51.728;5.248;2023-05-07T09:54:18;13.70;;;12.30;;
78891;SDS011;68368;51.728;5.248;2023-05-07T09:56:22;12.80;;;11.50;;
78891;SDS011;68368;51.728;5.248;2023-05-07T09:58:25;13.60;;;11.80;;
78891;SDS011;68368;51.728;5.248;2023-05-07T10:00:30;12.60;;;10.90;;
78891;SDS011;68368;51.728;5.248;2023-05-07T10:02:35;12.20;;;10.70;;
78891;SDS011;68368;51.728;5.248;2023-05-07T10:04:40;12.80;;;10.90;;
78891;SDS011;68368;51.728;5.248;2023-05-07T10:06:44;11.30;;;10.10;;
78891;SDS011;68368;51.728;5.248;2023-05-07T10:08:48;12.30;;;11.10;;
78891;SDS011;68368;51.728;5.248;2023-05-07T10:10:52;12.00;;;10.80;;
78891;SDS011;68368;51.728;5.248;2023-05-07T10:12:55;11.90;;;10.70;;
78891;SDS011;68368;51.728;5.248;2023-05-07T10:14:59;12.70;;;11.30;;
78891;SDS011;68368;51.728;5.248;2023-05-07T10:17:03;10.90;;;9.90;;
78891;SDS011;68368;51.728;5.248;2023-05-07T10:19:08;13.50;;;10.90;;
78891;SDS011;68368;51.728;5.248;2023-05-07T10:21:13;12.30;;;11.00;;
78891;SDS011;68368;51.728;5.248;2023-05-07T10:23:23;12.00;;;10.70;;
78891;SDS011;68368;51.728;5.248;2023-05-07T10:25:28;12.40;;;10.70;;
78891;SDS011;68368;51.728;5.248;2023-05-07T10:27:33;12.40;;;10.90;;
78891;SDS011;68368;51.728;5.248;2023-05-07T10:29:39;12.60;;;11.30;;
78891;SDS011;68368;51.728;5.248;2023-05-07T10:31:57;12.30;;;11.00;;
78891;SDS011;68368;51.728;5.248;2023-05-07T10:36:16;11.10;;;10.00;;
78891;SDS011;68368;51.728;5.248;2023-05-07T10:38:22;10.90;;;9.80;;
78891;SDS011;68368;51.728;5.248;2023-05-07T10:40:26;13.10;;;10.60;;
78891;SDS011;68368;51.728;5.248;2023-05-07T10:42:32;12.70;;;10.80;;
78891;SDS011;68368;51.728;5.248;2023-05-07T10:44:35;11.50;;;10.20;;
78891;SDS011;68368;51.728;5.248;2023-05-07T10:46:38;12.90;;;10.60;;
78891;SDS011;68368;51.728;5.248;2023-05-07T10:51:19;11.60;;;10.40;;
78891;SDS011;68368;51.728;5.248;2023-05-07T10:53:25;11.90;;;10.70;;
78891;SDS011;68368;51.728;5.248;2023-05-07T10:55:28;10.70;;;9.60;;
78891;SDS011;68368;51.728;5.248;2023-05-07T10:57:34;11.10;;;10.00;;
78891;SDS011;68368;51.728;5.248;2023-05-07T10:59:38;11.80;;;10.50;;
78891;SDS011;68368;51.728;5.248;2023-05-07T11:01:52;10.70;;;9.20;;
78891;SDS011;68368;51.728;5.248;2023-05-07T11:04:13;11.50;;;10.10;;
78891;SDS011;68368;51.728;5.248;2023-05-07T11:06:17;11.30;;;10.20;;
78891;SDS011;68368;51.728;5.248;2023-05-07T11:08:20;11.20;;;10.10;;
78891;SDS011;68368;51.728;5.248;2023-05-07T11:10:24;12.00;;;10.80;;
78891;SDS011;68368;51.728;5.248;2023-05-07T11:12:54;12.00;;;10.70;;
78891;SDS011;68368;51.728;5.248;2023-05-07T11:14:58;11.40;;;10.00;;
78891;SDS011;68368;51.728;5.248;2023-05-07T11:17:03;11.00;;;9.90;;
78891;SDS011;68368;51.728;5.248;2023-05-07T11:19:08;12.10;;;10.90;;
78891;SDS011;68368;51.728;5.248;2023-05-07T11:21:11;13.00;;;11.70;;
78891;SDS011;68368;51.728;5.248;2023-05-07T11:26:10;13.60;;;12.10;;
78891;SDS011;68368;51.728;5.248;2023-05-07T11:28:13;12.60;;;11.20;;
78891;SDS011;68368;51.728;5.248;2023-05-07T11:30:18;13.20;;;11.90;;
78891;SDS011;68368;51.728;5.248;2023-05-07T11:32:23;13.20;;;11.80;;
78891;SDS011;68368;51.728;5.248;2023-05-07T11:36:30;12.60;;;11.30;;
78891;SDS011;68368;51.728;5.248;2023-05-07T11:38:35;13.10;;;11.40;;
78891;SDS011;68368;51.728;5.248;2023-05-07T11:40:49;12.60;;;11.30;;
78891;SDS011;68368;51.728;5.248;2023-05-07T11:42:53;12.80;;;11.60;;
78891;SDS011;68368;51.728;5.248;2023-05-07T11:44:58;11.30;;;10.20;;
78891;SDS011;68368;51.728;5.248;2023-05-07T11:47:02;13.20;;;11.90;;
78891;SDS011;68368;51.728;5.248;2023-05-07T11:49:11;12.60;;;11.40;;
78891;SDS011;68368;51.728;5.248;2023-05-07T11:51:15;12.40;;;11.10;;
78891;SDS011;68368;51.728;5.248;2023-05-07T11:53:22;12.70;;;11.20;;
78891;SDS011;68368;51.728;5.248;2023-05-07T11:57:29;12.10;;;10.20;;
78891;SDS011;68368;51.728;5.248;2023-05-07T11:59:39;10.50;;;9.20;;
78891;SDS011;68368;51.728;5.248;2023-05-07T12:01:42;12.40;;;11.20;;
78891;SDS011;68368;51.728;5.248;2023-05-07T12:03:48;11.80;;;10.20;;
78891;SDS011;68368;51.728;5.248;2023-05-07T12:05:51;11.30;;;10.10;;
78891;SDS011;68368;51.728;5.248;2023-05-07T12:07:57;11.00;;;9.90;;
78891;SDS011;68368;51.728;5.248;2023-05-07T12:10:03;10.90;;;9.80;;
78891;SDS011;68368;51.728;5.248;2023-05-07T12:12:07;10.10;;;9.00;;
78891;SDS011;68368;51.728;5.248;2023-05-07T12:14:11;11.50;;;10.40;;
78891;SDS011;68368;51.728;5.248;2023-05-07T12:16:14;10.70;;;9.60;;
78891;SDS011;68368;51.728;5.248;2023-05-07T12:18:17;13.00;;;9.70;;
78891;SDS011;68368;51.728;5.248;2023-05-07T12:20:21;11.60;;;10.40;;
78891;SDS011;68368;51.728;5.248;2023-05-07T12:22:24;11.70;;;9.90;;
78891;SDS011;68368;51.728;5.248;2023-05-07T12:24:39;10.30;;;9.30;;
78891;SDS011;68368;51.728;5.248;2023-05-07T12:28:47;10.10;;;9.20;;
78891;SDS011;68368;51.728;5.248;2023-05-07T12:30:50;10.40;;;9.40;;
78891;SDS011;68368;51.728;5.248;2023-05-07T12:32:55;10.60;;;9.00;;